Contact Us:
Email: info@sawbill.com
Phone: (218)663-7150
Fax: (218)663-7980
Mail: 4620 Sawbill Trail
Box 2129
Tofte, MN 55615


Powered by
Movable Type 3.15
 
Sawbill Weather History Archives: October 2012
Current Sawbill Weather History | « September 2012 | November 2012 »


Date

High
Temperature

Low
Temperature

Barometric
Pressure

Relative
Humidity 7AM

9 AM
Temperature

Moisture

Snow

10/31/12 35 24 30.27 77% 34 0
10/30/12 36 21 30.36 80% 21 0
10/29/12 41 26 30.62 75% 26 0
10/28/12 34 22 30.68 80% 28 Trace Trace
10/27/12 32 21 30.65 71% 22 Trace Trace
10/26/12 33 26 30.56 75% 27 Trace Trace
10/25/12 41 31 30.36 80% 31 .3" Trace
10/24/12 53 41 30.03 98% 41 .55"
10/23/12 50 42 30.27 98% 50 .16"
10/22/12 52 42 30.33 94% 42 .18"
10/21/12 47 33 30.45 93% 44 0
10/20/12 50 32 30.21 90% 33 0
10/19/12 47 362 30.15 90% 37 Trace
10/18/12 51 42 29.97 98% 42 .56"
10/17/12 51 39 29.56 98% 51 .85"
10/16/12 56 37 29.90 86% 39 Trace
10/15/12 48 31 30.00 96% 40 .05"
10/14/12 42 31 30.27 87% 31 0
10/13/12 41 32 30.18 89% 34 Trace
10/12/12 39 27 30.24 87% 35 0
10/11/12 37 27 30.60 75% 27 0
10/10/12 38 30 30.24 85% 33 Trace Trace
10/9/12 42 30 30.21 73% 30 .07" Trace
10/8/12 45 35 29.97 87% 39 .28"
10/7/12 46 30 30.06 49% 35 0
10/6/12 38 29 30.33 70% 30 Trace Trace
10/5/12 37 31 30.42 77% 32 .09" Trace
10/4/12 54 33 30.06 75% 33 .03" Trace
10/3/12 68 38 30.15 73% 48 0
10/2/12 56 34 30.27 78% 38 0
10/1/12 59 34 30.30 68% 34 0
 


Home I Trip Planning I Rentals and Outfitting I Reservations I Campgrounds I Sawbill Store I Sawbill News I Contact

© 1997 - 2017, Sawbill Canoe Outfitters, Inc. I Privacy Policy